Parkway South

*Note: All times are displayed in the local standard time of the station location.
**Rain - Equipment is designed to accurately record liquid precipitation; under conditions when precipitation is not in liquid form, the data displayed may not properly reflect rainfall values.

Date Max Temp
(°C)
Min Temp
(°C)
Avg Temp
(°C)
Rain (mm) Avg RH (%)
Mon, Apr 23, 2018 19.8 0.0 10.0 0.0 54.3
Sun, Apr 22, 2018 16.6 -1.5 8.3 0.0 50.9
Sat, Apr 21, 2018 14.4 -2.9 6.2 0.0 54.9
Fri, Apr 20, 2018 7.9 -0.6 3.1 0.0 60.2
Thu, Apr 19, 2018 4.0 1.1 2.4 0.0 69.4
Wed, Apr 18, 2018 4.8 1.0 2.6 0.0 77.9
Tue, Apr 17, 2018 1.8 -0.3 0.9 0.4 77.3
DateTime Avg Temp (°C) Rain (mm) RH (%)
Tue, Apr 24, 2018 18:00 13.3 0.8 84.5
Tue, Apr 24, 2018 17:00 14.5 0.0 71.8
Tue, Apr 24, 2018 16:00 13.4 0.0 61.5
Tue, Apr 24, 2018 15:00 13.7 0.0 60.0
Tue, Apr 24, 2018 14:00 18.2 0.0 42.8
Tue, Apr 24, 2018 13:00 19.1 0.0 40.0
Tue, Apr 24, 2018 12:00 16.8 0.0 42.8
Tue, Apr 24, 2018 11:00 15.8 0.0 53.3
Tue, Apr 24, 2018 10:00 15.2 0.0 58.3
Tue, Apr 24, 2018 09:00 14.9 0.0 56.3
Tue, Apr 24, 2018 08:00 13.4 0.0 61.5
Tue, Apr 24, 2018 07:00 10.9 0.0 70.0
Tue, Apr 24, 2018 06:00 9.0 0.0 74.3
Tue, Apr 24, 2018 05:00 5.8 0.0 79.3
Tue, Apr 24, 2018 04:00 5.1 0.0 84.5
Tue, Apr 24, 2018 03:00 4.8 0.0 87.3
Tue, Apr 24, 2018 02:00 5.1 0.0 82.8
Tue, Apr 24, 2018 01:00 5.3 0.0 78.5
Tue, Apr 24, 2018 00:00 5.9 0.0 78.0
Mon, Apr 23, 2018 23:00 6.2 0.0 76.5
Mon, Apr 23, 2018 22:00 7.4 0.0 73.0
Mon, Apr 23, 2018 21:00 8.4 0.0 67.0
Mon, Apr 23, 2018 20:00 11.8 0.0 53.0
Mon, Apr 23, 2018 19:00 16.4 0.0 39.3
Mon, Apr 23, 2018 18:00 18.5 0.0 34.0
Mon, Apr 23, 2018 17:00 19.5 0.0 30.5
Mon, Apr 23, 2018 16:00 19.0 0.0 29.5
Mon, Apr 23, 2018 15:00 18.4 0.0 29.0
Mon, Apr 23, 2018 14:00 17.0 0.0 31.5
Mon, Apr 23, 2018 13:00 18.0 0.0 31.5
Mon, Apr 23, 2018 12:00 18.8 0.0 24.3
Mon, Apr 23, 2018 11:00 17.1 0.0 25.3
Mon, Apr 23, 2018 10:00 14.3 0.0 27.5
Mon, Apr 23, 2018 09:00 11.4 0.0 38.0
Mon, Apr 23, 2018 08:00 4.9 0.0 69.5
Mon, Apr 23, 2018 07:00 0.9 0.0 82.0
Mon, Apr 23, 2018 06:00 1.1 0.0 68.8
Mon, Apr 23, 2018 05:00 0.6 0.0 76.3
Mon, Apr 23, 2018 04:00 0.8 0.0 82.5
Mon, Apr 23, 2018 03:00 0.8 0.0 85.5
Mon, Apr 23, 2018 02:00 1.6 0.0 79.3
Mon, Apr 23, 2018 01:00 2.7 0.0 72.8
Mon, Apr 23, 2018 00:00 4.6 0.0 65.8
Sun, Apr 22, 2018 23:00 5.3 0.0 62.8
Sun, Apr 22, 2018 22:00 7.3 0.0 48.3
Sun, Apr 22, 2018 21:00 11.0 0.0 31.8
Sun, Apr 22, 2018 20:00 14.7 0.0 25.8
Sun, Apr 22, 2018 19:00 16.2 0.0 21.8


asterix Register now to access more data! asterix